createdAt,value
2018-07-16T00:02:00.288Z,100804.73
2018-07-16T00:04:33.643Z,100807.91
2018-07-16T00:07:07.085Z,100807.98
2018-07-16T00:09:40.526Z,100805.06
2018-07-16T00:12:13.919Z,100804.91
2018-07-16T00:14:47.641Z,100806.34
2018-07-16T00:17:21.038Z,100802.14
2018-07-16T00:19:54.431Z,100807.89
2018-07-16T00:22:27.831Z,100802.54
2018-07-16T00:25:01.245Z,100806.89
2018-07-16T00:27:34.673Z,100805.71
2018-07-16T00:30:08.080Z,100802.66
2018-07-16T00:32:41.475Z,100805.76
2018-07-16T00:35:14.826Z,100808.70
2018-07-16T00:37:48.213Z,100804.95
2018-07-16T00:40:21.605Z,100805.86
2018-07-16T00:42:55.030Z,100807.77
2018-07-16T00:45:28.387Z,100805.33
2018-07-16T00:48:01.787Z,100803.30
2018-07-16T00:50:35.140Z,100808.55
2018-07-16T00:53:08.562Z,100794.64
2018-07-16T00:55:42.019Z,100804.52
2018-07-16T00:58:15.338Z,100798.25
2018-07-16T01:00:48.721Z,100799.70
2018-07-16T01:03:22.135Z,100798.67
2018-07-16T01:05:55.537Z,100793.73
2018-07-16T01:08:28.917Z,100798.90
2018-07-16T01:11:02.272Z,100797.78
2018-07-16T01:13:35.655Z,100796.43
2018-07-16T01:16:09.018Z,100793.92
2018-07-16T01:18:42.413Z,100798.39
2018-07-16T01:21:15.856Z,100800.38
2018-07-16T01:23:49.245Z,100794.52
2018-07-16T01:26:22.653Z,100790.56
2018-07-16T01:28:56.015Z,100794.11
2018-07-16T01:31:29.417Z,100790.18
2018-07-16T01:34:02.795Z,100792.55
2018-07-16T01:36:36.159Z,100791.05
2018-07-16T01:39:09.568Z,100789.48
2018-07-16T01:41:42.944Z,100789.64
2018-07-16T01:44:16.320Z,100791.37
2018-07-16T01:46:49.712Z,100790.18
2018-07-16T01:49:23.100Z,100788.80
2018-07-16T01:51:56.459Z,100789.64
2018-07-16T01:54:29.835Z,100787.03
2018-07-16T01:57:03.200Z,100786.68
2018-07-16T01:59:36.637Z,100784.56
2018-07-16T02:02:09.994Z,100779.61
2018-07-16T02:04:43.374Z,100777.20
2018-07-16T02:07:16.725Z,100772.63
2018-07-16T02:09:50.149Z,100781.32
2018-07-16T02:12:23.573Z,100780.10
2018-07-16T02:14:56.988Z,100785.27
2018-07-16T02:17:30.386Z,100784.07
2018-07-16T02:20:06.255Z,100783.59
2018-07-16T02:22:39.615Z,100780.64
2018-07-16T02:25:13.020Z,100779.89
2018-07-16T02:27:46.404Z,100781.66
2018-07-16T02:30:19.816Z,100777.14
2018-07-16T02:32:53.249Z,100780.16
2018-07-16T02:35:26.661Z,100778.07
2018-07-16T02:38:00.053Z,100780.64
2018-07-16T02:40:33.566Z,100772.64
2018-07-16T02:43:06.936Z,100772.61
2018-07-16T02:45:40.337Z,100782.52
2018-07-16T02:48:13.705Z,100779.50
2018-07-16T02:50:47.095Z,100779.36
2018-07-16T02:53:20.454Z,100779.69
2018-07-16T02:55:53.874Z,100768.25
2018-07-16T02:58:27.214Z,100777.23
2018-07-16T03:01:00.655Z,100769.98
2018-07-16T03:03:34.031Z,100768.13
2018-07-16T03:06:07.416Z,100772.84
2018-07-16T03:08:40.772Z,100772.94
2018-07-16T03:11:14.176Z,100780.42
2018-07-16T03:13:47.593Z,100776.34
2018-07-16T03:16:20.993Z,100776.95
2018-07-16T03:18:59.026Z,100771.52
2018-07-16T03:21:32.426Z,100783.52
2018-07-16T03:24:05.860Z,100777.04
2018-07-16T03:26:39.268Z,100776.14
2018-07-16T03:29:12.682Z,100773.67
2018-07-16T03:31:46.068Z,100776.68
2018-07-16T03:34:19.455Z,100778.38
2018-07-16T03:36:52.868Z,100777.88
2018-07-16T03:39:26.272Z,100771.09
2018-07-16T03:41:59.846Z,100776.29
2018-07-16T03:44:33.280Z,100779.69
2018-07-16T03:47:06.700Z,100776.29
2018-07-16T03:49:40.156Z,100777.96
2018-07-16T03:52:13.523Z,100779.25
2018-07-16T03:54:46.934Z,100782.70
2018-07-16T03:57:20.344Z,100774.17
2018-07-16T03:59:53.736Z,100775.14
2018-07-16T04:02:27.191Z,100782.16
2018-07-16T04:05:00.620Z,100786.37
2018-07-16T04:07:34.031Z,100791.86
2018-07-16T04:10:07.418Z,100787.92
2018-07-16T04:12:40.811Z,100787.80
2018-07-16T04:15:14.231Z,100780.38
2018-07-16T04:17:47.595Z,100777.17
2018-07-16T04:20:20.990Z,100773.38
2018-07-16T04:22:54.360Z,100776.44
2018-07-16T04:25:27.738Z,100773.48
2018-07-16T04:28:01.096Z,100775.26
2018-07-16T04:30:34.497Z,100778.76
2018-07-16T04:33:08.007Z,100771.91
2018-07-16T04:35:41.400Z,100774.00
2018-07-16T04:38:14.772Z,100785.48
2018-07-16T04:40:48.177Z,100780.20
2018-07-16T04:43:21.530Z,100785.52
2018-07-16T04:45:54.962Z,100774.72
2018-07-16T04:48:28.323Z,100782.11
2018-07-16T04:51:02.012Z,100780.95
2018-07-16T04:53:35.367Z,100778.38
2018-07-16T04:56:08.860Z,100778.72
2018-07-16T04:58:42.225Z,100775.75
2018-07-16T05:01:15.609Z,100781.86
2018-07-16T05:03:48.977Z,100776.59
2018-07-16T05:06:22.412Z,100773.75
2018-07-16T05:08:55.791Z,100779.45
2018-07-16T05:11:29.194Z,100777.84
2018-07-16T05:14:02.593Z,100781.50
2018-07-16T05:16:36.024Z,100777.77
2018-07-16T05:19:09.392Z,100777.94
2018-07-16T05:21:42.790Z,100779.77
2018-07-16T05:24:16.176Z,100775.56
2018-07-16T05:26:49.577Z,100775.73
2018-07-16T05:29:23.000Z,100774.31
2018-07-16T05:31:56.580Z,100775.75
2018-07-16T05:34:29.798Z,100774.92
2018-07-16T05:37:03.251Z,100770.73
2018-07-16T05:39:36.607Z,100769.66
2018-07-16T05:42:10.124Z,100767.93
2018-07-16T05:44:43.658Z,100772.27
2018-07-16T05:47:17.068Z,100768.34
2018-07-16T05:49:50.472Z,100766.84
2018-07-16T05:52:23.940Z,100767.72
2018-07-16T05:54:57.312Z,100763.22
2018-07-16T05:57:30.739Z,100764.44
2018-07-16T06:00:04.204Z,100761.19
2018-07-16T06:02:37.607Z,100756.66
2018-07-16T06:05:10.992Z,100758.24
2018-07-16T06:07:44.382Z,100757.48
2018-07-16T06:10:17.766Z,100758.87
2018-07-16T06:12:51.170Z,100756.00
2018-07-16T06:15:24.596Z,100757.19
2018-07-16T06:17:58.004Z,100753.53
2018-07-16T06:20:31.360Z,100756.08
2018-07-16T06:23:04.804Z,100751.75
2018-07-16T06:25:38.365Z,100754.57
2018-07-16T06:28:11.842Z,100758.08
2018-07-16T06:30:45.286Z,100759.09
2018-07-16T06:33:18.752Z,100748.28
2018-07-16T06:35:52.164Z,100751.87
2018-07-16T06:38:25.866Z,100750.01
2018-07-16T06:40:59.371Z,100753.53
2018-07-16T06:43:33.049Z,100750.48
2018-07-16T06:46:06.504Z,100745.20
2018-07-16T06:48:39.907Z,100747.59
2018-07-16T06:51:13.307Z,100743.61
2018-07-16T06:53:46.739Z,100742.75
2018-07-16T06:56:20.132Z,100737.46
2018-07-16T06:58:53.539Z,100741.46
2018-07-16T07:01:26.955Z,100740.56
2018-07-16T07:04:00.448Z,100741.87
2018-07-16T07:06:33.888Z,100733.56
2018-07-16T07:09:07.316Z,100737.45
2018-07-16T07:11:40.787Z,100735.37
2018-07-16T07:14:14.193Z,100727.20
2018-07-16T07:16:47.874Z,100726.88
2018-07-16T07:19:21.448Z,100724.86
2018-07-16T07:21:55.433Z,100725.88
2018-07-16T07:24:28.878Z,100724.70
2018-07-16T07:27:02.406Z,100725.87
2018-07-16T07:29:35.760Z,100721.72
2018-07-16T07:32:09.203Z,100714.97
2018-07-16T07:34:42.605Z,100717.33
2018-07-16T07:37:16.010Z,100717.80
2018-07-16T07:39:49.424Z,100708.64
2018-07-16T07:42:22.863Z,100716.56
2018-07-16T07:44:56.774Z,100710.41
2018-07-16T07:47:30.229Z,100703.86
2018-07-16T07:50:03.750Z,100706.41
2018-07-16T07:52:37.178Z,100704.42
2018-07-16T07:55:11.001Z,100702.77
2018-07-16T07:57:44.052Z,100701.25
2018-07-16T08:00:17.489Z,100702.72
2018-07-16T08:02:50.936Z,100699.74
2018-07-16T08:05:24.380Z,100696.06
2018-07-16T08:07:57.784Z,100699.02
2018-07-16T08:10:31.223Z,100697.25
2018-07-16T08:13:04.655Z,100701.66
2018-07-16T08:15:38.138Z,100696.08
2018-07-16T08:18:11.606Z,100700.60
2018-07-16T08:20:45.022Z,100688.42
2018-07-16T08:23:18.475Z,100694.87
2018-07-16T08:25:51.918Z,100688.06
2018-07-16T08:28:25.365Z,100688.31
2018-07-16T08:30:58.875Z,100690.66
2018-07-16T08:33:32.453Z,100689.57
2018-07-16T08:36:05.885Z,100685.53
2018-07-16T08:38:39.446Z,100681.50
2018-07-16T08:41:12.938Z,100679.62
2018-07-16T08:43:46.475Z,100682.81
2018-07-16T08:46:19.964Z,100680.89
2018-07-16T08:48:53.320Z,100681.02
2018-07-16T08:51:26.751Z,100684.44
2018-07-16T08:54:00.298Z,100683.93
2018-07-16T08:56:33.678Z,100677.45
2018-07-16T08:59:07.176Z,100671.73
2018-07-16T09:01:40.554Z,100677.86
2018-07-16T09:04:13.957Z,100674.69
2018-07-16T09:06:47.341Z,100672.62
2018-07-16T09:09:20.743Z,100677.37
2018-07-16T09:11:54.153Z,100681.16
2018-07-16T09:14:27.603Z,100676.19
2018-07-16T09:17:01.080Z,100679.18
2018-07-16T09:19:34.434Z,100677.77
2018-07-16T09:22:08.391Z,100677.02
2018-07-16T09:24:41.787Z,100673.02
2018-07-16T09:27:15.207Z,100675.58
2018-07-16T09:29:48.632Z,100686.66
2018-07-16T09:32:22.038Z,100678.28
2018-07-16T09:34:55.500Z,100688.56
2018-07-16T09:37:28.910Z,100681.29
2018-07-16T09:40:02.319Z,100681.61
2018-07-16T09:42:35.729Z,100676.02
2018-07-16T09:45:09.191Z,100673.95
2018-07-16T09:47:42.571Z,100671.10
2018-07-16T09:50:15.985Z,100672.08
2018-07-16T09:52:49.391Z,100670.92
2018-07-16T09:55:22.824Z,100670.72
2018-07-16T09:57:56.801Z,100672.50
2018-07-16T10:00:35.540Z,100667.97
2018-07-16T10:03:09.376Z,100665.91
2018-07-16T10:05:42.751Z,100661.27
2018-07-16T10:08:16.187Z,100666.57
2018-07-16T10:10:49.580Z,100660.75
2018-07-16T10:13:22.985Z,100653.08
2018-07-16T10:15:56.409Z,100651.13
2018-07-16T10:18:29.807Z,100647.95
2018-07-16T10:21:03.220Z,100650.87
2018-07-16T10:23:36.661Z,100647.55
2018-07-16T10:26:10.056Z,100646.70
2018-07-16T10:28:43.484Z,100649.55
2018-07-16T10:31:16.913Z,100640.05
2018-07-16T10:33:50.442Z,100637.84
2018-07-16T10:36:23.803Z,100640.53
2018-07-16T10:38:57.215Z,100638.19
2018-07-16T10:41:30.593Z,100634.58
2018-07-16T10:44:04.051Z,100629.97
2018-07-16T10:46:37.553Z,100623.13
2018-07-16T10:49:11.060Z,100625.07
2018-07-16T10:51:44.440Z,100620.20
2018-07-16T10:54:17.888Z,100628.86
2018-07-16T10:56:51.320Z,100620.97
2018-07-16T10:59:24.772Z,100618.02
2018-07-16T11:01:58.261Z,100620.03
2018-07-16T11:04:31.667Z,100619.75
2018-07-16T11:07:05.195Z,100608.64
2018-07-16T11:09:38.590Z,100614.05
2018-07-16T11:12:11.975Z,100610.78
2018-07-16T11:14:45.363Z,100610.03
2018-07-16T11:17:18.749Z,100600.02
2018-07-16T11:19:52.157Z,100602.63
2018-07-16T11:22:25.536Z,100604.30
2018-07-16T11:24:58.926Z,100603.21
2018-07-16T11:27:32.331Z,100600.27
2018-07-16T11:30:06.995Z,100597.61
2018-07-16T11:32:40.348Z,100589.40
2018-07-16T11:35:13.738Z,100596.09
2018-07-16T11:37:47.126Z,100591.06
2018-07-16T11:40:20.509Z,100589.83
2018-07-16T11:43:00.419Z,100586.56
2018-07-16T11:45:33.815Z,100584.28
2018-07-16T11:48:07.185Z,100580.05
2018-07-16T11:50:40.584Z,100582.92
2018-07-16T11:53:13.944Z,100579.86
2018-07-16T11:55:47.338Z,100576.37
2018-07-16T11:58:21.344Z,100575.28
2018-07-16T12:00:54.788Z,100576.11
2018-07-16T12:03:28.232Z,100571.45
2018-07-16T12:06:05.046Z,100577.70
2018-07-16T12:08:38.424Z,100570.97
2018-07-16T12:11:11.793Z,100566.44
2018-07-16T12:13:45.148Z,100563.36
2018-07-16T12:16:18.578Z,100555.16
2018-07-16T12:18:51.968Z,100554.31
2018-07-16T12:21:25.351Z,100556.63
2018-07-16T12:23:58.731Z,100551.56
2018-07-16T12:26:32.153Z,100543.56
2018-07-16T12:29:05.557Z,100540.38
2018-07-16T12:31:38.972Z,100535.31
2018-07-16T12:34:12.341Z,100531.50
2018-07-16T12:36:45.732Z,100532.38
2018-07-16T12:39:19.087Z,100531.54
2018-07-16T12:41:52.578Z,100535.84
2018-07-16T12:44:25.881Z,100529.31
2018-07-16T12:46:59.299Z,100525.24
2018-07-16T12:49:32.711Z,100519.39
2018-07-16T12:52:06.251Z,100514.55
2018-07-16T12:54:39.738Z,100510.69
2018-07-16T12:57:13.165Z,100512.50
2018-07-16T12:59:46.724Z,100507.64
2018-07-16T13:02:20.100Z,100507.20
2018-07-16T13:04:53.525Z,100501.06
2018-07-16T13:07:26.882Z,100497.68
2018-07-16T13:10:00.275Z,100500.44
2018-07-16T13:12:33.756Z,100497.31
2018-07-16T13:15:07.211Z,100495.79
2018-07-16T13:17:40.597Z,100486.28
2018-07-16T13:20:13.999Z,100486.52
2018-07-16T13:22:47.356Z,100478.18
2018-07-16T13:25:20.755Z,100480.39
2018-07-16T13:27:54.170Z,100476.77
2018-07-16T13:30:27.611Z,100479.68
2018-07-16T13:33:01.010Z,100464.89
2018-07-16T13:35:34.456Z,100469.65
2018-07-16T13:38:07.954Z,100466.20
2018-07-16T13:40:41.420Z,100459.92
2018-07-16T13:43:14.824Z,100458.83
2018-07-16T13:45:48.229Z,100456.43
2018-07-16T13:48:21.609Z,100452.48
2018-07-16T13:50:54.991Z,100451.88
2018-07-16T13:53:28.465Z,100450.98
2018-07-16T13:56:01.889Z,100448.63
2018-07-16T13:58:35.266Z,100447.03
2018-07-16T14:01:08.672Z,100437.95
2018-07-16T14:03:42.079Z,100432.19
2018-07-16T14:06:15.496Z,100439.27
2018-07-16T14:08:48.919Z,100435.91
2018-07-16T14:11:22.319Z,100432.41
2018-07-16T14:13:55.740Z,100428.89
2018-07-16T14:16:29.252Z,100435.84
2018-07-16T14:19:02.665Z,100428.26
2018-07-16T14:21:36.558Z,100422.19
2018-07-16T14:24:10.005Z,100418.09
2018-07-16T14:26:43.418Z,100413.52
2018-07-16T14:29:16.823Z,100416.53
2018-07-16T14:31:50.272Z,100414.91
2018-07-16T14:34:23.699Z,100418.34
2018-07-16T14:36:57.077Z,100411.56
2018-07-16T14:39:30.538Z,100409.41
2018-07-16T14:42:04.056Z,100410.09
2018-07-16T14:44:37.625Z,100407.45
2018-07-16T14:47:11.041Z,100402.38
2018-07-16T14:49:44.488Z,100399.41
2018-07-16T14:52:18.116Z,100399.31
2018-07-16T14:54:51.487Z,100400.67
2018-07-16T14:57:25.068Z,100394.80
2018-07-16T14:59:58.539Z,100400.60
2018-07-16T15:02:32.012Z,100403.42
2018-07-16T15:05:05.834Z,100399.31
2018-07-16T15:07:39.292Z,100402.49
2018-07-16T15:10:12.736Z,100401.83
2018-07-16T15:12:46.165Z,100401.17
2018-07-16T15:15:19.537Z,100404.58
2018-07-16T15:17:52.971Z,100398.48
2018-07-16T15:20:26.377Z,100397.77
2018-07-16T15:22:59.812Z,100393.90
2018-07-16T15:25:33.186Z,100394.00
2018-07-16T15:28:06.680Z,100394.10
2018-07-16T15:30:40.087Z,100393.88
2018-07-16T15:33:13.487Z,100392.19
2018-07-16T15:35:46.919Z,100378.91
2018-07-16T15:38:20.317Z,100386.17
2018-07-16T15:40:53.720Z,100386.53
2018-07-16T15:43:27.186Z,100375.21
2018-07-16T15:46:00.596Z,100374.36
2018-07-16T15:48:34.082Z,100375.16
2018-07-16T15:51:07.573Z,100373.36
2018-07-16T15:53:40.995Z,100366.66
2018-07-16T15:56:14.433Z,100364.38
2018-07-16T15:58:47.866Z,100372.30
2018-07-16T16:01:22.147Z,100366.42
2018-07-16T16:03:55.598Z,100367.59
2018-07-16T16:06:29.015Z,100366.47
2018-07-16T16:09:02.497Z,100366.50
2018-07-16T16:11:35.855Z,100362.75
2018-07-16T16:14:09.300Z,100367.84
2018-07-16T16:16:42.747Z,100355.98
2018-07-16T16:19:16.139Z,100358.44
2018-07-16T16:21:49.574Z,100358.94
2018-07-16T16:24:22.956Z,100354.35
2018-07-16T16:26:56.431Z,100357.67
2018-07-16T16:29:29.844Z,100358.95
2018-07-16T16:32:03.260Z,100350.91
2018-07-16T16:34:36.755Z,100344.02
2018-07-16T16:37:10.224Z,100345.97
2018-07-16T16:39:43.632Z,100338.43
2018-07-16T16:42:17.113Z,100338.24
2018-07-16T16:44:50.812Z,100338.58
2018-07-16T16:47:24.332Z,100333.98
2018-07-16T16:49:57.720Z,100336.27
2018-07-16T16:52:32.301Z,100330.67
2018-07-16T16:55:05.754Z,100326.37
2018-07-16T16:57:39.160Z,100331.81
2018-07-16T17:00:13.237Z,100334.30
2018-07-16T17:02:46.655Z,100332.03
2018-07-16T17:05:21.064Z,100330.44
2018-07-16T17:07:54.627Z,100326.66
2018-07-16T17:10:28.115Z,100329.41
2018-07-16T17:13:02.593Z,100330.22
2018-07-16T17:15:36.016Z,100325.09
2018-07-16T17:18:10.197Z,100322.14
2018-07-16T17:20:43.627Z,100323.60
2018-07-16T17:23:17.087Z,100322.59
2018-07-16T17:25:51.542Z,100325.13
2018-07-16T17:28:25.012Z,100325.30
2018-07-16T17:30:58.387Z,100326.92
2018-07-16T17:33:31.817Z,100327.88
2018-07-16T17:36:05.251Z,100330.69
2018-07-16T17:38:38.669Z,100325.94
2018-07-16T17:41:12.178Z,100324.48
2018-07-16T17:43:45.663Z,100328.93
2018-07-16T17:46:19.076Z,100332.56
2018-07-16T17:48:53.104Z,100332.67
2018-07-16T17:51:26.604Z,100333.78
2018-07-16T17:54:00.025Z,100331.41
2018-07-16T17:56:33.411Z,100334.03
2018-07-16T17:59:07.243Z,100338.95
2018-07-16T18:01:40.747Z,100335.30
2018-07-16T18:04:14.227Z,100339.19
2018-07-16T18:06:47.594Z,100342.93
2018-07-16T18:09:21.027Z,100345.98
2018-07-16T18:11:54.414Z,100345.77
2018-07-16T18:14:27.796Z,100345.42
2018-07-16T18:17:01.179Z,100353.09
2018-07-16T18:19:34.687Z,100348.61
2018-07-16T18:22:08.100Z,100351.02
2018-07-16T18:24:41.516Z,100353.09
2018-07-16T18:27:14.993Z,100359.70
2018-07-16T18:29:48.506Z,100358.16
2018-07-16T18:32:21.873Z,100363.88
2018-07-16T18:34:55.279Z,100365.12
2018-07-16T18:37:28.812Z,100366.13
2018-07-16T18:40:02.732Z,100366.22
2018-07-16T18:42:36.130Z,100369.02
2018-07-16T18:45:09.775Z,100373.50
2018-07-16T18:47:43.379Z,100375.72
2018-07-16T18:50:16.841Z,100381.16
2018-07-16T18:52:50.299Z,100379.80
2018-07-16T18:55:23.893Z,100384.37
2018-07-16T18:57:57.510Z,100390.98
2018-07-16T19:00:30.987Z,100387.19
2018-07-16T19:03:04.466Z,100389.13
2018-07-16T19:05:38.454Z,100391.30
2018-07-16T19:08:11.890Z,100388.34
2018-07-16T19:10:45.299Z,100388.67
2018-07-16T19:13:18.999Z,100394.41
2018-07-16T19:15:52.384Z,100393.05
2018-07-16T19:18:25.893Z,100397.00
2018-07-16T19:21:00.960Z,100395.52
2018-07-16T19:23:34.540Z,100397.72
2018-07-16T19:26:08.088Z,100398.81
2018-07-16T19:28:41.830Z,100406.63
2018-07-16T19:31:15.151Z,100401.11
2018-07-16T19:33:48.575Z,100407.67
2018-07-16T19:36:22.072Z,100410.07
2018-07-16T19:38:55.638Z,100410.90
2018-07-16T19:41:28.994Z,100414.53
2018-07-16T19:44:02.474Z,100411.25
2018-07-16T19:46:35.912Z,100415.14
2018-07-16T19:49:09.347Z,100420.43
2018-07-16T19:51:42.736Z,100415.46
2018-07-16T19:54:16.195Z,100419.09
2018-07-16T19:56:49.591Z,100412.85
2018-07-16T19:59:22.993Z,100418.67
2018-07-16T20:01:56.426Z,100420.00
2018-07-16T20:04:29.909Z,100415.88
2018-07-16T20:07:03.281Z,100414.83
2018-07-16T20:09:36.778Z,100423.11
2018-07-16T20:12:18.430Z,100420.14
2018-07-16T20:14:51.872Z,100419.53
2018-07-16T20:17:25.242Z,100430.20
2018-07-16T20:19:59.265Z,100425.09
2018-07-16T20:22:32.765Z,100429.45
2018-07-16T20:25:07.016Z,100433.69
2018-07-16T20:27:40.392Z,100433.19
2018-07-16T20:30:13.851Z,100436.56
2018-07-16T20:32:47.266Z,100432.75
2018-07-16T20:35:20.661Z,100429.51
2018-07-16T20:37:54.089Z,100424.61
2018-07-16T20:40:27.487Z,100428.34
2018-07-16T20:43:00.904Z,100427.98
2018-07-16T20:45:34.312Z,100425.69
2018-07-16T20:48:07.840Z,100426.89
2018-07-16T20:50:41.247Z,100429.95
2018-07-16T20:53:14.658Z,100437.20
2018-07-16T20:55:48.095Z,100427.34
2018-07-16T20:58:21.508Z,100426.95
2018-07-16T21:00:54.958Z,100433.98
2018-07-16T21:03:28.356Z,100430.63
2018-07-16T21:06:01.777Z,100434.67
2018-07-16T21:08:35.134Z,100434.66
2018-07-16T21:11:08.616Z,100439.52
2018-07-16T21:13:42.003Z,100439.22
2018-07-16T21:16:15.431Z,100443.80
2018-07-16T21:18:48.822Z,100441.88
2018-07-16T21:21:22.322Z,100450.66
2018-07-16T21:23:55.747Z,100439.81
2018-07-16T21:26:29.157Z,100445.81
2018-07-16T21:29:02.555Z,100444.56
2018-07-16T21:31:35.950Z,100447.00
2018-07-16T21:34:09.381Z,100449.83
2018-07-16T21:36:42.782Z,100448.09
2018-07-16T21:39:16.179Z,100445.92
2018-07-16T21:41:49.579Z,100442.58
2018-07-16T21:44:22.947Z,100442.30
2018-07-16T21:46:56.356Z,100442.81
2018-07-16T21:49:29.778Z,100441.89
2018-07-16T21:52:03.190Z,100448.80
2018-07-16T21:54:36.603Z,100447.89
2018-07-16T21:57:10.020Z,100457.16
2018-07-16T21:59:43.461Z,100452.59
2018-07-16T22:02:16.839Z,100467.41
2018-07-16T22:04:50.226Z,100465.30
2018-07-16T22:07:23.627Z,100465.49
2018-07-16T22:09:57.020Z,100462.37
2018-07-16T22:12:30.383Z,100462.57
2018-07-16T22:15:03.810Z,100458.04
2018-07-16T22:17:37.188Z,100467.02
2018-07-16T22:20:10.632Z,100465.54
2018-07-16T22:22:44.025Z,100463.14
2018-07-16T22:25:17.445Z,100465.91
2018-07-16T22:27:50.842Z,100467.61
2018-07-16T22:30:24.274Z,100468.72
2018-07-16T22:32:57.634Z,100474.45
2018-07-16T22:35:32.936Z,100471.20
2018-07-16T22:38:06.349Z,100471.09
2018-07-16T22:40:39.773Z,100465.38
2018-07-16T22:43:13.168Z,100473.79
2018-07-16T22:45:46.608Z,100470.23
2018-07-16T22:48:19.974Z,100473.74
2018-07-16T22:50:53.720Z,100468.73
2018-07-16T22:53:27.099Z,100472.80
2018-07-16T22:56:01.187Z,100472.68
2018-07-16T22:58:34.588Z,100472.49
2018-07-16T23:01:08.168Z,100475.26
2018-07-16T23:03:41.558Z,100478.39
2018-07-16T23:06:14.969Z,100474.39
2018-07-16T23:08:48.353Z,100472.38
2018-07-16T23:11:21.768Z,100468.09
2018-07-16T23:13:55.163Z,100468.00
2018-07-16T23:16:28.559Z,100463.70
2018-07-16T23:19:01.951Z,100463.87
2018-07-16T23:21:35.366Z,100466.66
2018-07-16T23:24:08.807Z,100463.14
2018-07-16T23:26:42.255Z,100466.00
2018-07-16T23:29:15.639Z,100466.63
2018-07-16T23:31:49.053Z,100469.75
2018-07-16T23:34:22.458Z,100472.60
2018-07-16T23:36:55.879Z,100464.72
2018-07-16T23:39:29.276Z,100465.48
2018-07-16T23:42:02.695Z,100465.28
2018-07-16T23:44:36.082Z,100465.80
2018-07-16T23:47:09.576Z,100468.59
2018-07-16T23:49:42.981Z,100467.92
2018-07-16T23:52:16.468Z,100453.47
2018-07-16T23:54:49.836Z,100455.48
2018-07-16T23:57:23.281Z,100449.28
2018-07-16T23:59:56.707Z,100447.02
